Time;durP1;ratioP1;P1;durP2;ratioP2;P2;SDS_P1;SDS_P2;PMS_P1;PMS_P2;Temp;Humidity;BMP_temperature;BMP_pressure;BME280_temperature;BME280_humidity;BME280_pressure;Samples;Min_cycle;Max_cycle;Signal;HPM_P1;HPM_P2
2021/08/01 00:04:52;;;;;;;7.40;4.50;;;;;;;21.57;100.00;94530.94;10529935;28;20097;-76
2021/08/01 00:09:59;;;;;;;6.22;4.10;;;;;;;21.58;100.00;94521.59;10529175;28;20293;-76
2021/08/01 00:15:00;;;;;;;10.32;5.65;;;;;;;21.58;100.00;94523.53;10509312;28;20020;-75
2021/08/01 00:20:00;;;;;;;18.45;7.25;;;;;;;21.55;100.00;94519.56;10528885;28;20484;-76
2021/08/01 00:25:01;;;;;;;9.73;6.87;;;;;;;21.31;100.00;94529.41;10527328;28;20051;-76
2021/08/01 00:30:03;;;;;;;11.83;7.23;;;;;;;21.11;100.00;94533.09;10544985;28;20081;-76
2021/08/01 00:35:06;;;;;;;15.32;7.93;;;;;;;20.74;100.00;94525.00;10529030;28;20365;-77
2021/08/01 00:40:08;;;;;;;10.98;7.68;;;;;;;20.11;100.00;94524.16;10528725;28;20051;-76
2021/08/01 00:45:09;;;;;;;16.92;8.35;;;;;;;19.80;100.00;94541.00;10527568;28;20127;-76
2021/08/01 00:50:10;;;;;;;12.18;7.60;;;;;;;19.54;100.00;94538.53;10527746;28;20074;-76
2021/08/01 00:55:11;;;;;;;10.45;7.85;;;;;;;19.44;100.00;94545.19;10527799;28;20028;-75
2021/08/01 01:00:24;;;;;;;23.13;11.10;;;;;;;19.23;100.00;94540.56;10524685;28;20099;-76
2021/08/01 01:05:28;;;;;;;19.77;10.98;;;;;;;19.26;100.00;94533.66;10524571;28;20028;-76
2021/08/01 01:10:37;;;;;;;25.45;12.75;;;;;;;19.28;100.00;94540.34;10524555;28;20039;-76
2021/08/01 01:15:48;;;;;;;15.52;10.05;;;;;;;19.33;100.00;94536.63;10524607;28;20034;-76
2021/08/01 01:21:09;;;;;;;15.00;10.25;;;;;;;19.27;100.00;94536.03;10523068;28;20440;-76
2021/08/01 01:26:26;;;;;;;16.75;8.50;;;;;;;19.43;100.00;94543.59;10523200;28;20588;-76
2021/08/01 01:31:49;;;;;;;13.60;7.60;;;;;;;19.47;100.00;94544.53;10523891;28;20143;-75
2021/08/01 01:36:52;;;;;;;13.13;8.55;;;;;;;19.53;100.00;94542.38;10523301;28;20063;-76
2021/08/01 01:41:52;;;;;;;14.20;7.78;;;;;;;19.62;100.00;94557.53;10523166;28;20031;-77
2021/08/01 01:46:53;;;;;;;22.60;9.40;;;;;;;19.67;100.00;94558.44;10522491;28;20052;-76
2021/08/01 01:51:54;;;;;;;18.38;12.45;;;;;;;19.67;100.00;94558.44;10522339;28;20040;-76
2021/08/01 01:56:55;;;;;;;32.33;13.48;;;;;;;19.53;100.00;94562.25;10522800;28;20467;-76
2021/08/01 02:01:55;;;;;;;24.23;15.15;;;;;;;19.45;100.00;94572.09;10525747;28;20773;-77
2021/08/01 02:06:56;;;;;;;26.97;14.53;;;;;;;19.15;100.00;94576.81;10530590;28;20392;-76
2021/08/01 02:12:02;;;;;;;26.40;15.90;;;;;;;19.09;100.00;94575.44;10530710;28;20034;-76
2021/08/01 02:17:10;;;;;;;24.02;13.48;;;;;;;19.00;100.00;94567.31;10530448;28;20487;-76
2021/08/01 02:22:11;;;;;;;18.43;12.67;;;;;;;19.05;100.00;94560.88;10530758;28;20759;-77
2021/08/01 02:27:12;;;;;;;22.40;11.98;;;;;;;19.00;100.00;94558.34;10529671;28;20067;-76
2021/08/01 02:32:13;;;;;;;17.83;11.52;;;;;;;19.06;100.00;94563.28;10512165;28;20039;-77
2021/08/01 02:37:15;;;;;;;20.08;10.40;;;;;;;19.10;100.00;94552.50;10530362;28;20257;-77
2021/08/01 02:42:16;;;;;;;16.85;12.25;;;;;;;19.04;100.00;94559.28;10545134;28;20575;-76
2021/08/01 02:47:18;;;;;;;21.98;12.43;;;;;;;19.17;100.00;94566.38;10529883;28;20106;-76
2021/08/01 02:52:24;;;;;;;23.55;14.27;;;;;;;19.16;100.00;94570.25;10528959;28;20151;-76
2021/08/01 02:57:30;;;;;;;20.92;12.57;;;;;;;19.10;100.00;94579.75;10529321;28;20035;-76
2021/08/01 03:02:32;;;;;;;20.30;12.68;;;;;;;18.94;100.00;94583.03;10538432;28;20425;-76
2021/08/01 03:07:33;;;;;;;27.67;14.63;;;;;;;18.95;100.00;94575.69;10528484;28;20031;-76
2021/08/01 03:12:40;;;;;;;16.67;10.77;;;;;;;18.84;100.00;94571.69;10528164;28;20065;-76
2021/08/01 03:17:41;;;;;;;16.23;12.30;;;;;;;18.67;100.00;94578.03;10528956;28;20016;-76
2021/08/01 03:22:42;;;;;;;14.50;11.23;;;;;;;18.53;100.00;94589.16;10529436;28;20031;-77
2021/08/01 03:27:42;;;;;;;17.63;11.10;;;;;;;18.41;100.00;94587.94;10528407;28;20044;-76
2021/08/01 03:32:43;;;;;;;21.00;10.90;;;;;;;18.36;100.00;94600.91;10528917;28;20052;-76
2021/08/01 03:37:43;;;;;;;19.02;12.35;;;;;;;18.52;100.00;94610.16;10528772;28;20020;-77
2021/08/01 03:42:44;;;;;;;13.50;10.93;;;;;;;18.63;100.00;94607.88;10528244;28;20032;-77
2021/08/01 03:47:44;;;;;;;25.70;12.70;;;;;;;18.69;100.00;94613.91;10528308;28;20110;-76
2021/08/01 03:52:45;;;;;;;20.63;12.13;;;;;;;18.73;100.00;94598.53;10528186;28;20107;-76
2021/08/01 03:57:45;;;;;;;25.77;12.53;;;;;;;18.54;100.00;94607.88;10528171;28;21166;-77
2021/08/01 04:02:45;;;;;;;19.93;13.10;;;;;;;18.56;100.00;94599.41;10527558;28;20031;-76
2021/08/01 04:07:46;;;;;;;26.83;13.53;;;;;;;18.59;100.00;94596.81;10526938;28;20278;-76
2021/08/01 04:12:46;;;;;;;33.33;15.40;;;;;;;18.65;100.00;94593.94;10527477;28;20081;-76
2021/08/01 04:17:46;;;;;;;22.30;13.70;;;;;;;18.76;100.00;94597.88;10527112;28;20073;-76
2021/08/01 04:22:51;;;;;;;24.23;12.50;;;;;;;18.97;100.00;94611.56;10527188;28;20024;-76
2021/08/01 04:27:53;;;;;;;18.52;11.70;;;;;;;19.07;100.00;94615.81;10526654;28;20820;-76
2021/08/01 04:32:53;;;;;;;18.63;13.68;;;;;;;19.16;100.00;94613.84;10526654;28;20824;-77
2021/08/01 04:37:54;;;;;;;21.10;12.23;;;;;;;19.33;100.00;94612.13;10526961;28;20027;-76
2021/08/01 04:42:54;;;;;;;33.53;13.70;;;;;;;19.60;100.00;94614.28;10526896;28;20028;-75
2021/08/01 04:47:54;;;;;;;25.70;13.07;;;;;;;19.89;100.00;94615.38;10526164;28;20031;-75
2021/08/01 04:52:55;;;;;;;24.83;13.50;;;;;;;20.31;100.00;94626.16;10525392;28;20030;-75
2021/08/01 04:57:55;;;;;;;30.83;13.50;;;;;;;20.91;100.00;94620.34;10526453;28;20024;-74
2021/08/01 05:03:01;;;;;;;27.07;13.33;;;;;;;21.57;100.00;94628.59;10525933;28;20024;-76
2021/08/01 05:08:02;;;;;;;19.52;12.57;;;;;;;21.95;100.00;94625.41;10526131;28;20031;-76
2021/08/01 05:13:07;;;;;;;28.05;11.38;;;;;;;22.44;100.00;94615.34;10525041;28;20028;-76
2021/08/01 05:18:07;;;;;;;15.30;9.65;;;;;;;23.00;100.00;94619.88;10525763;28;20418;-76
2021/08/01 05:23:08;;;;;;;20.27;10.30;;;;;;;23.18;100.00;94615.63;10525268;28;20035;-75
2021/08/01 05:28:08;;;;;;;22.58;10.43;;;;;;;23.84;100.00;94617.78;10525019;28;20294;-76
2021/08/01 05:33:10;;;;;;;22.30;10.00;;;;;;;24.54;100.00;94621.47;10523145;28;20031;-77
2021/08/01 05:38:10;;;;;;;16.75;9.95;;;;;;;25.18;100.00;94631.97;10528508;28;20277;-77
2021/08/01 05:43:11;;;;;;;16.23;10.40;;;;;;;25.83;100.00;94624.63;10533213;28;20032;-76
2021/08/01 05:48:11;;;;;;;28.10;10.27;;;;;;;26.64;100.00;94634.25;10532621;28;20036;-76
2021/08/01 05:53:13;;;;;;;23.43;9.83;;;;;;;27.12;100.00;94634.25;10531707;28;20479;-75
2021/08/01 05:58:13;;;;;;;16.52;11.00;;;;;;;26.46;100.00;94636.00;10531719;28;20446;-76
2021/08/01 06:03:14;;;;;;;17.17;9.65;;;;;;;27.42;96.21;94627.81;10530465;28;20031;-75
2021/08/01 06:08:14;;;;;;;14.40;8.38;;;;;;;28.38;90.60;94630.63;10530958;28;20064;-75
2021/08/01 06:13:15;;;;;;;11.93;8.17;;;;;;;29.17;81.09;94624.44;10532153;28;20032;-76
2021/08/01 06:18:15;;;;;;;19.97;8.50;;;;;;;30.06;73.17;94625.47;10531699;28;20067;-76
2021/08/01 06:23:15;;;;;;;13.00;8.20;;;;;;;30.67;66.90;94627.94;10547305;28;20052;-76
2021/08/01 06:28:17;;;;;;;20.03;8.33;;;;;;;31.21;61.00;94624.81;10531460;28;20804;-76
2021/08/01 06:33:18;;;;;;;15.07;7.13;;;;;;;31.56;57.75;94616.56;10531382;28;20803;-76
2021/08/01 06:38:18;;;;;;;19.65;7.47;;;;;;;31.98;56.30;94608.97;10546529;28;20028;-76
2021/08/01 06:43:19;;;;;;;20.00;8.23;;;;;;;32.32;54.56;94606.19;10530630;28;20032;-76
2021/08/01 06:48:19;;;;;;;15.57;6.77;;;;;;;32.30;53.45;94591.91;10529296;28;20051;-76
2021/08/01 06:53:19;;;;;;;16.53;7.30;;;;;;;33.08;52.33;94598.75;10530277;28;20036;-75
2021/08/01 06:58:20;;;;;;;14.85;7.18;;;;;;;33.66;51.41;94599.34;10530629;28;20540;-74
2021/08/01 07:03:21;;;;;;;16.70;7.90;;;;;;;34.06;48.98;94591.03;10530167;28;20497;-76
2021/08/01 07:08:21;;;;;;;12.02;6.43;;;;;;;34.48;46.11;94587.78;10529960;28;20321;-76
2021/08/01 07:13:22;;;;;;;16.83;6.87;;;;;;;35.47;45.84;94584.25;10529956;28;20032;-76
2021/08/01 07:18:22;;;;;;;12.68;6.60;;;;;;;36.10;44.28;94583.75;10529065;28;20028;-75
2021/08/01 07:23:23;;;;;;;14.87;6.23;;;;;;;36.34;41.37;94586.28;10529087;28;20044;-75
2021/08/01 07:28:23;;;;;;;20.05;6.43;;;;;;;36.85;40.36;94605.16;10529240;28;20028;-74
2021/08/01 07:33:24;;;;;;;15.87;6.57;;;;;;;36.59;39.68;94610.72;10528637;28;20036;-74
2021/08/01 07:38:24;;;;;;;11.83;5.97;;;;;;;36.56;39.05;94599.63;10510623;28;20310;-75
2021/08/01 07:43:25;;;;;;;12.82;6.57;;;;;;;37.54;38.33;94597.31;10528463;28;20421;-75
2021/08/01 07:48:25;;;;;;;13.83;6.37;;;;;;;37.58;38.58;94595.97;10528538;28;20715;-77
2021/08/01 07:53:25;;;;;;;12.73;5.97;;;;;;;38.11;38.02;94589.72;10528074;28;20762;-77
2021/08/01 07:58:26;;;;;;;16.60;6.60;;;;;;;38.89;36.44;94584.41;10527961;28;20024;-77
2021/08/01 08:03:26;;;;;;;16.70;6.20;;;;;;;39.64;34.45;94586.16;10543623;28;20486;-77
2021/08/01 08:08:26;;;;;;;15.53;6.37;;;;;;;40.38;32.84;94576.88;10527613;28;20548;-77
2021/08/01 08:13:27;;;;;;;16.03;6.47;;;;;;;40.54;32.58;94572.97;10527341;28;20475;-77
2021/08/01 08:18:27;;;;;;;22.47;7.63;;;;;;;38.95;34.18;94579.72;10527120;28;20024;-77
2021/08/01 08:23:27;;;;;;;20.50;6.80;;;;;;;38.61;34.34;94570.22;10526479;28;20051;-76
2021/08/01 08:28:28;;;;;;;15.80;7.70;;;;;;;40.19;33.41;94561.28;10542334;28;20035;-76
2021/08/01 08:33:28;;;;;;;20.27;7.50;;;;;;;40.62;33.35;94562.94;10527055;28;20032;-76
2021/08/01 08:38:29;;;;;;;22.00;7.43;;;;;;;40.82;31.70;94553.91;10526411;28;20050;-76
2021/08/01 08:43:29;;;;;;;17.30;6.67;;;;;;;41.67;30.98;94554.97;10526404;28;20032;-76
2021/08/01 08:48:31;;;;;;;16.60;5.87;;;;;;;41.80;28.99;94541.44;10526099;28;20147;-76
2021/08/01 08:53:32;;;;;;;15.27;6.25;;;;;;;41.56;29.33;94529.38;10525847;28;20563;-77
2021/08/01 08:58:33;;;;;;;22.25;7.88;;;;;;;42.05;28.91;94530.84;10525577;28;20074;-77
2021/08/01 09:03:34;;;;;;;19.17;7.35;;;;;;;42.63;29.84;94520.06;10525801;28;20115;-77
2021/08/01 09:08:36;;;;;;;20.65;7.97;;;;;;;42.80;27.96;94525.16;10525583;28;20043;-77
2021/08/01 09:13:53;;;;;;;20.60;8.15;;;;;;;42.82;27.89;94522.66;10530572;28;20954;-76
2021/08/01 09:18:53;;;;;;;23.85;7.50;;;;;;;44.31;27.51;94518.28;10534205;28;20020;-77
2021/08/01 09:23:54;;;;;;;13.67;6.37;;;;;;;44.43;26.16;94510.66;10533874;28;20059;-77
2021/08/01 09:29:04;;;;;;;11.53;6.47;;;;;;;44.84;25.80;94504.81;10533700;28;20113;-77
2021/08/01 09:34:27;;;;;;;15.93;6.25;;;;;;;45.14;24.01;94505.25;10534050;28;20808;-77
2021/08/01 09:39:28;;;;;;;23.73;7.07;;;;;;;45.57;24.72;94498.00;10533507;28;20051;-77
2021/08/01 09:44:30;;;;;;;11.55;4.88;;;;;;;45.27;24.74;94495.53;10533478;28;20515;-77
2021/08/01 09:49:30;;;;;;;9.90;4.82;;;;;;;45.13;25.09;94486.72;10515364;28;20040;-77
2021/08/01 09:54:48;;;;;;;9.15;5.38;;;;;;;45.96;24.57;94483.16;10533041;28;20027;-77
2021/08/01 09:59:50;;;;;;;12.77;4.97;;;;;;;46.05;24.78;94474.34;10532313;28;20124;-77
2021/08/01 10:04:50;;;;;;;13.02;5.65;;;;;;;43.81;26.66;94459.88;10532953;28;20028;-77
2021/08/01 10:09:51;;;;;;;13.50;5.47;;;;;;;44.59;26.08;94450.50;10532311;28;20024;-77
2021/08/01 10:14:53;;;;;;;17.75;5.70;;;;;;;45.32;24.97;94452.97;10532225;28;20036;-77
2021/08/01 10:19:53;;;;;;;14.70;5.18;;;;;;;45.70;24.16;94441.50;10532096;28;20034;-77
2021/08/01 10:25:00;;;;;;;9.53;5.30;;;;;;;45.65;23.64;94434.53;10531287;28;20063;-77
2021/08/01 10:30:01;;;;;;;9.88;4.85;;;;;;;46.85;22.97;94429.63;10531378;28;20089;-77
2021/08/01 10:35:06;;;;;;;9.05;4.88;;;;;;;46.75;22.74;94431.97;10531033;28;20904;-77
2021/08/01 10:40:09;;;;;;;15.30;4.82;;;;;;;48.02;21.63;94423.13;10530873;28;20527;-76
2021/08/01 10:45:10;;;;;;;7.13;3.70;;;;;;;48.16;22.17;94412.69;10513002;28;20036;-77
2021/08/01 10:50:20;;;;;;;8.27;3.88;;;;;;;46.63;22.87;94407.75;10530160;28;20460;-76
2021/08/01 10:55:22;;;;;;;13.85;4.50;;;;;;;45.98;24.75;94401.78;10530306;28;20032;-77
2021/08/01 11:00:23;;;;;;;14.95;5.45;;;;;;;46.20;23.50;94383.97;10530080;28;20494;-76
2021/08/01 11:05:37;;;;;;;11.43;5.23;;;;;;;45.05;26.04;94367.25;10530697;28;20035;-77
2021/08/01 11:10:39;;;;;;;11.10;4.43;;;;;;;47.27;23.22;94373.63;10529430;28;20059;-76
2021/08/01 11:15:45;;;;;;;16.48;5.22;;;;;;;45.12;24.44;94366.00;10529030;28;20032;-76
2021/08/01 11:20:46;;;;;;;11.43;5.50;;;;;;;41.77;28.66;94366.59;10529798;28;20024;-76
2021/08/01 11:26:06;;;;;;;13.35;5.68;;;;;;;39.41;30.68;94359.75;10528560;28;20048;-76
2021/08/01 11:31:21;;;;;;;13.27;5.43;;;;;;;37.93;33.40;94360.31;10526824;28;20035;-76
2021/08/01 11:36:27;;;;;;;13.75;6.43;;;;;;;36.80;34.94;94358.47;10524549;28;20027;-76
2021/08/01 11:41:28;;;;;;;16.63;6.07;;;;;;;36.32;36.46;94342.47;10526475;28;20035;-76
2021/08/01 11:46:59;;;;;;;11.67;5.87;;;;;;;35.80;35.85;94341.69;10525781;28;20039;-75
2021/08/01 11:52:05;;;;;;;18.48;5.95;;;;;;;35.54;36.57;94340.91;10525743;28;20298;-75
2021/08/01 11:57:08;;;;;;;10.45;6.00;;;;;;;34.59;37.27;94333.53;10524504;28;20030;-75
2021/08/01 12:02:10;;;;;;;12.25;6.05;;;;;;;34.53;36.93;94319.34;10525414;28;20040;-76
2021/08/01 12:07:10;;;;;;;11.80;5.88;;;;;;;34.38;37.28;94312.56;10525301;28;20460;-76
2021/08/01 12:12:11;;;;;;;11.33;5.77;;;;;;;34.37;36.79;94311.00;10525341;28;20032;-75
2021/08/01 12:17:12;;;;;;;14.65;5.90;;;;;;;34.65;36.88;94314.25;10525217;28;20039;-76
2021/08/01 12:22:15;;;;;;;8.77;5.93;;;;;;;34.75;36.35;94319.56;10524587;28;20031;-76
2021/08/01 12:27:22;;;;;;;10.55;5.72;;;;;;;34.84;33.84;94316.16;10524460;28;20051;-76
2021/08/01 12:32:24;;;;;;;14.70;7.03;;;;;;;34.70;33.75;94294.19;10524666;28;20059;-75
2021/08/01 12:37:24;;;;;;;17.05;7.07;;;;;;;34.85;37.01;94292.59;10524339;28;20262;-76
2021/08/01 12:42:25;;;;;;;16.13;5.80;;;;;;;34.88;32.42;94282.56;10524066;28;20036;-75
2021/08/01 12:47:27;;;;;;;11.13;5.25;;;;;;;34.84;32.53;94276.28;10521549;28;20028;-76
2021/08/01 12:52:28;;;;;;;14.57;6.10;;;;;;;34.85;33.84;94275.06;10523650;28;20044;-76
2021/08/01 12:57:28;;;;;;;7.78;4.28;;;;;;;35.12;30.70;94269.06;10537260;28;20087;-76
2021/08/01 13:02:29;;;;;;;11.50;5.77;;;;;;;35.09;30.37;94267.19;10522427;28;20045;-76
2021/08/01 13:07:29;;;;;;;9.83;5.20;;;;;;;34.98;29.24;94259.09;10522697;28;20281;-75
2021/08/01 13:12:30;;;;;;;10.25;5.22;;;;;;;35.02;30.50;94257.00;10523882;28;20040;-77
2021/08/01 13:17:41;;;;;;;12.43;4.53;;;;;;;34.93;31.83;94251.28;10522965;28;20020;-75
2021/08/01 13:22:41;;;;;;;16.25;6.47;;;;;;;34.84;31.86;94245.56;10522818;28;20032;-74
2021/08/01 13:27:50;;;;;;;8.45;5.35;;;;;;;34.74;33.13;94244.63;10522870;28;20099;-74
2021/08/01 13:32:51;;;;;;;8.85;5.05;;;;;;;34.71;32.04;94234.34;10523083;28;20024;-74
2021/08/01 13:38:09;;;;;;;12.25;5.47;;;;;;;34.77;31.15;94235.34;10521985;28;20028;-74
2021/08/01 13:43:18;;;;;;;17.40;5.85;;;;;;;34.86;29.44;94224.38;10522852;28;20103;-74
2021/08/01 13:48:18;;;;;;;12.80;4.90;;;;;;;34.76;29.68;94228.19;10522931;28;20036;-74
2021/08/01 13:53:19;;;;;;;9.87;5.07;;;;;;;34.99;30.33;94231.97;10522829;28;20058;-74
2021/08/01 13:58:19;;;;;;;14.03;5.60;;;;;;;35.25;30.01;94235.59;10540830;28;20023;-74
2021/08/01 14:03:24;;;;;;;9.02;4.82;;;;;;;35.02;31.04;94219.91;10528961;28;20027;-74
2021/08/01 14:08:25;;;;;;;12.07;5.20;;;;;;;34.87;31.85;94220.34;10533082;28;20040;-74
2021/08/01 14:13:25;;;;;;;11.40;5.30;;;;;;;35.14;31.61;94212.75;10529179;28;20024;-74
2021/08/01 14:18:26;;;;;;;11.98;4.82;;;;;;;35.26;30.03;94217.56;10528924;28;20905;-75
2021/08/01 14:23:27;;;;;;;8.43;5.03;;;;;;;35.43;29.69;94204.28;10528535;28;20075;-75
2021/08/01 14:28:29;;;;;;;13.52;4.82;;;;;;;35.18;28.87;94193.88;10529056;28;20028;-75
2021/08/01 14:33:33;;;;;;;14.55;6.07;;;;;;;34.99;30.19;94195.69;10528443;28;20024;-75
2021/08/01 14:38:34;;;;;;;11.45;5.00;;;;;;;34.75;29.50;94198.75;10528724;28;20026;-75
2021/08/01 14:43:34;;;;;;;9.38;5.07;;;;;;;34.67;30.14;94189.00;10527815;28;20028;-75
2021/08/01 14:48:37;;;;;;;10.63;5.20;;;;;;;34.55;29.60;94180.19;10527664;28;20035;-75
2021/08/01 14:53:37;;;;;;;10.30;5.10;;;;;;;34.54;29.29;94186.19;10528070;28;20109;-75
2021/08/01 14:58:43;;;;;;;17.93;5.60;;;;;;;34.44;31.31;94187.28;10526587;28;20080;-75
2021/08/01 15:04:13;;;;;;;15.68;5.65;;;;;;;34.34;31.08;94180.78;10526723;28;20028;-75
2021/08/01 15:09:13;;;;;;;11.85;5.57;;;;;;;34.30;30.63;94188.47;10526103;28;20068;-75
2021/08/01 15:14:18;;;;;;;11.23;5.88;;;;;;;34.24;32.14;94188.19;10526731;28;20381;-75
2021/08/01 15:19:24;;;;;;;16.48;6.63;;;;;;;34.23;32.04;94198.56;10526122;28;20024;-76
2021/08/01 15:24:46;;;;;;;13.50;6.72;;;;;;;34.26;31.89;94194.13;10527166;28;20055;-75
2021/08/01 15:29:47;;;;;;;13.98;6.13;;;;;;;34.10;31.56;94197.72;10526369;28;20606;-76
2021/08/01 15:34:49;;;;;;;11.35;5.43;;;;;;;34.01;30.57;94190.00;10526355;28;20024;-76
2021/08/01 15:39:49;;;;;;;14.63;5.07;;;;;;;33.94;30.81;94190.19;10527095;28;20148;-76
2021/08/01 15:44:52;;;;;;;11.00;5.85;;;;;;;33.79;30.63;94189.78;10525612;28;20127;-75
2021/08/01 15:49:53;;;;;;;9.15;4.90;;;;;;;33.70;30.23;94195.94;10525773;28;20024;-76
2021/08/01 15:55:00;;;;;;;12.00;6.60;;;;;;;33.68;30.63;94198.38;10525879;28;20491;-75
2021/08/01 16:00:04;;;;;;;15.80;5.90;;;;;;;33.65;30.81;94192.91;10525633;28;20048;-76
2021/08/01 16:05:06;;;;;;;13.10;5.97;;;;;;;33.56;30.56;94193.50;10524352;28;20200;-75
2021/08/01 16:10:09;;;;;;;16.67;6.45;;;;;;;33.44;31.15;94194.22;10524238;28;20020;-75
2021/08/01 16:15:10;;;;;;;14.93;6.07;;;;;;;33.41;31.54;94201.44;10524156;28;20020;-75
2021/08/01 16:20:11;;;;;;;12.93;5.20;;;;;;;33.42;31.50;94199.44;10505541;28;20137;-75
2021/08/01 16:25:13;;;;;;;9.25;5.53;;;;;;;33.44;31.65;94200.56;10524233;28;20067;-75
2021/08/01 16:30:14;;;;;;;21.95;5.90;;;;;;;33.36;32.04;94191.59;10524510;28;20838;-75
2021/08/01 16:35:20;;;;;;;9.35;5.13;;;;;;;33.22;32.39;94194.69;10523506;28;20115;-75
2021/08/01 16:40:21;;;;;;;17.13;6.00;;;;;;;33.09;32.18;94208.50;10523443;28;20547;-76
2021/08/01 16:45:24;;;;;;;14.20;6.57;;;;;;;32.98;31.92;94211.53;10521820;28;20100;-76
2021/08/01 16:50:54;;;;;;;16.42;6.18;;;;;;;32.94;33.42;94215.63;10523373;28;20111;-75
2021/08/01 16:56:07;;;;;;;14.13;6.57;;;;;;;32.79;34.33;94221.47;10546933;27;20032;-75
2021/08/01 17:01:08;;;;;;;20.23;7.85;;;;;;;32.68;38.83;94221.69;10549028;28;20035;-75
2021/08/01 17:06:09;;;;;;;19.52;7.95;;;;;;;32.38;41.91;94222.69;10567465;28;20027;-75
2021/08/01 17:11:18;;;;;;;29.95;11.18;;;;;;;32.01;48.58;94232.88;10569077;28;20045;-75
2021/08/01 17:16:18;;;;;;;14.82;8.65;;;;;;;31.44;46.37;94232.63;10570333;28;20027;-75
2021/08/01 17:21:20;;;;;;;16.63;7.03;;;;;;;31.00;48.85;94242.75;10571000;28;20024;-74
2021/08/01 17:26:20;;;;;;;15.25;7.82;;;;;;;30.87;49.54;94238.97;10569976;28;20308;-74
2021/08/01 17:31:23;;;;;;;17.27;7.97;;;;;;;30.80;46.46;94237.09;10569651;28;20028;-74
2021/08/01 17:36:29;;;;;;;19.23;7.45;;;;;;;30.82;46.40;94234.66;10504668;28;20067;-73
2021/08/01 17:41:29;;;;;;;18.73;8.73;;;;;;;30.73;45.11;94243.50;10494176;28;20456;-74
2021/08/01 17:46:34;;;;;;;19.43;10.30;;;;;;;30.67;44.46;94250.69;10493793;28;20123;-74
2021/08/01 17:51:34;;;;;;;26.90;8.13;;;;;;;30.54;43.42;94246.91;10532724;28;20024;-74
2021/08/01 17:56:35;;;;;;;14.68;7.38;;;;;;;30.34;42.54;94250.28;10535636;28;20031;-73
2021/08/01 18:01:35;;;;;;;17.73;6.88;;;;;;;30.17;43.15;94260.38;10535632;28;20032;-73
2021/08/01 18:06:49;;;;;;;12.90;8.00;;;;;;;30.00;44.35;94270.41;10535270;28;20562;-74
2021/08/01 18:11:59;;;;;;;26.98;9.07;;;;;;;29.90;50.13;94274.06;10535061;28;20039;-74
2021/08/01 18:17:00;;;;;;;17.52;9.27;;;;;;;29.81;52.32;94269.75;10535098;28;20034;-74
2021/08/01 18:22:01;;;;;;;17.23;8.63;;;;;;;29.59;50.75;94271.13;10534448;28;20343;-74
2021/08/01 18:27:03;;;;;;;21.08;8.98;;;;;;;29.29;49.77;94275.28;10567468;28;20051;-74
2021/08/01 18:32:04;;;;;;;14.02;8.30;;;;;;;29.17;50.79;94278.53;10576322;28;20032;-75
2021/08/01 18:37:05;;;;;;;23.67;9.90;;;;;;;29.05;50.49;94275.00;10576128;28;20035;-75
2021/08/01 18:42:11;;;;;;;17.90;8.57;;;;;;;28.85;49.33;94277.50;10576238;28;20216;-74
2021/08/01 18:47:13;;;;;;;18.10;9.23;;;;;;;28.76;49.32;94280.69;10557356;28;20035;-74
2021/08/01 18:52:21;;;;;;;15.55;7.82;;;;;;;28.62;49.29;94286.22;10575257;28;20486;-74
2021/08/01 18:57:24;;;;;;;12.80;7.63;;;;;;;28.44;50.05;94292.63;10575609;28;20038;-74
2021/08/01 19:02:27;;;;;;;13.13;7.50;;;;;;;28.25;49.56;94287.53;10574569;28;20410;-74
2021/08/01 19:07:30;;;;;;;13.80;7.43;;;;;;;28.23;48.22;94290.72;10574625;28;20064;-74
2021/08/01 19:12:31;;;;;;;13.38;7.68;;;;;;;28.12;46.82;94293.50;10574855;28;20379;-74
2021/08/01 19:17:46;;;;;;;16.83;6.57;;;;;;;28.08;45.25;94292.69;10573420;28;20035;-74
2021/08/01 19:23:09;;;;;;;13.60;6.15;;;;;;;27.99;45.32;94297.84;10572880;28;20031;-74
2021/08/01 19:28:14;;;;;;;16.38;6.15;;;;;;;27.95;44.25;94302.53;10562364;28;20077;-74
2021/08/01 19:33:18;;;;;;;21.33;5.93;;;;;;;27.95;44.58;94303.34;10572578;28;20027;-75
2021/08/01 19:38:19;;;;;;;18.02;6.18;;;;;;;27.87;45.63;94301.00;10573318;28;20023;-74
2021/08/01 19:43:19;;;;;;;20.40;6.32;;;;;;;27.72;45.70;94311.25;10561637;28;20030;-74
2021/08/01 19:48:23;;;;;;;17.70;6.57;;;;;;;27.55;49.28;94315.59;10569109;28;20031;-74
2021/08/01 19:53:24;;;;;;;15.63;6.40;;;;;;;27.45;49.63;94322.66;10541241;28;20071;-74
2021/08/01 19:58:27;;;;;;;12.38;5.13;;;;;;;27.24;50.10;94337.97;10529420;28;20027;-74
2021/08/01 20:03:27;;;;;;;17.50;5.95;;;;;;;27.01;52.35;94338.28;10530429;28;20028;-75
2021/08/01 20:08:30;;;;;;;84.70;35.53;;;;;;;26.87;55.23;94341.00;10530320;28;20038;-75
2021/08/01 20:13:31;;;;;;;64.38;32.20;;;;;;;26.74;55.89;94329.53;10528999;28;20027;-76
2021/08/01 20:18:31;;;;;;;43.33;22.27;;;;;;;26.65;57.21;94340.84;10526382;28;20016;-75
2021/08/01 20:23:31;;;;;;;51.77;28.33;;;;;;;26.65;60.03;94337.31;10526638;28;20048;-76
2021/08/01 20:28:32;;;;;;;37.70;23.45;;;;;;;26.61;63.85;94340.03;10527247;28;20107;-76
2021/08/01 20:33:32;;;;;;;29.75;16.90;;;;;;;26.50;63.74;94339.19;10528010;28;20028;-75
2021/08/01 20:38:33;;;;;;;28.90;12.80;;;;;;;26.43;62.75;94351.00;10528350;28;20020;-74
2021/08/01 20:43:34;;;;;;;19.57;9.93;;;;;;;26.34;64.78;94334.00;10527729;28;20399;-75
2021/08/01 20:48:34;;;;;;;15.85;7.13;;;;;;;26.20;61.86;94331.94;10528284;28;20057;-74
2021/08/01 20:53:34;;;;;;;27.10;11.70;;;;;;;26.04;70.88;94333.03;10527505;28;20028;-75
2021/08/01 20:58:35;;;;;;;19.17;8.97;;;;;;;25.99;75.55;94333.34;10527274;28;20111;-75
2021/08/01 21:03:35;;;;;;;23.77;11.03;;;;;;;25.90;79.25;94328.19;10527313;28;20046;-75
2021/08/01 21:08:35;;;;;;;24.30;11.63;;;;;;;25.71;77.94;94342.97;10526211;28;20313;-74
2021/08/01 21:13:36;;;;;;;21.43;11.57;;;;;;;25.55;83.49;94358.94;10527143;28;20467;-75
2021/08/01 21:18:36;;;;;;;25.65;10.35;;;;;;;25.44;78.74;94358.03;10526960;28;20492;-76
2021/08/01 21:23:37;;;;;;;18.33;10.33;;;;;;;25.45;77.65;94359.63;10527035;28;20163;-74
2021/08/01 21:28:37;;;;;;;25.87;11.20;;;;;;;25.43;80.14;94362.75;10528164;28;20333;-76
2021/08/01 21:33:37;;;;;;;20.30;9.60;;;;;;;25.39;81.61;94370.19;10528785;28;20028;-75
2021/08/01 21:38:38;;;;;;;19.63;10.13;;;;;;;25.22;84.99;94364.06;10544670;28;20119;-75
2021/08/01 21:43:38;;;;;;;22.30;10.07;;;;;;;25.14;83.33;94362.41;10528590;28;20020;-75
2021/08/01 21:48:39;;;;;;;21.40;8.63;;;;;;;25.11;80.30;94365.13;10527045;28;20040;-74
2021/08/01 21:53:40;;;;;;;21.17;9.88;;;;;;;25.07;77.40;94368.63;10528590;28;20028;-74
2021/08/01 21:58:40;;;;;;;22.75;8.23;;;;;;;25.12;70.62;94372.19;10528066;28;20028;-74
2021/08/01 22:03:48;;;;;;;22.30;8.87;;;;;;;25.11;74.69;94378.88;10528261;28;20024;-74
2021/08/01 22:08:49;;;;;;;25.27;9.10;;;;;;;25.06;80.05;94375.31;10528258;28;20032;-74
2021/08/01 22:13:51;;;;;;;19.37;8.50;;;;;;;25.04;72.47;94369.38;10528086;28;20078;-75
2021/08/01 22:18:52;;;;;;;15.40;8.63;;;;;;;24.89;75.71;94382.19;10530102;28;20277;-74
2021/08/01 22:23:52;;;;;;;21.05;7.78;;;;;;;24.97;75.58;94385.00;10535319;28;20051;-74
2021/08/01 22:28:56;;;;;;;18.70;8.03;;;;;;;24.98;85.09;94389.31;10534765;28;20363;-75
2021/08/01 22:33:58;;;;;;;28.45;9.48;;;;;;;24.76;82.50;94375.31;10534572;28;20024;-74
2021/08/01 22:39:00;;;;;;;20.70;9.32;;;;;;;24.70;83.19;94382.31;10533973;28;20016;-74
2021/08/01 22:44:00;;;;;;;18.63;8.27;;;;;;;24.65;89.45;94379.91;10534377;28;20036;-74
2021/08/01 22:49:02;;;;;;;17.15;8.18;;;;;;;24.46;92.26;94386.25;10534051;28;20036;-74
2021/08/01 22:54:02;;;;;;;21.95;8.82;;;;;;;24.31;90.73;94382.50;10534335;28;20042;-74
2021/08/01 22:59:04;;;;;;;23.95;8.93;;;;;;;24.31;96.62;94388.81;10533921;28;20016;-74
2021/08/01 23:04:08;;;;;;;21.90;9.52;;;;;;;24.14;100.00;94389.31;10533836;28;20024;-75
2021/08/01 23:09:11;;;;;;;22.02;9.38;;;;;;;23.69;100.00;94387.03;10533294;28;20028;-74